createdAt,value
2022-10-06T00:02:14.101Z,9.82
2022-10-06T00:04:40.709Z,10.37
2022-10-06T00:07:07.256Z,11.13
2022-10-06T00:09:33.722Z,10.17
2022-10-06T00:12:02.698Z,9.23
2022-10-06T00:14:29.356Z,10.10
2022-10-06T00:16:55.959Z,10.47
2022-10-06T00:19:22.656Z,10.17
2022-10-06T00:21:49.155Z,9.70
2022-10-06T00:24:16.082Z,9.43
2022-10-06T00:26:42.623Z,10.90
2022-10-06T00:29:09.275Z,11.33
2022-10-06T00:31:35.826Z,11.17
2022-10-06T00:34:02.339Z,9.03
2022-10-06T00:36:28.825Z,10.03
2022-10-06T00:38:55.319Z,9.57
2022-10-06T00:41:21.812Z,11.80
2022-10-06T00:43:49.906Z,11.87
2022-10-06T00:46:20.323Z,9.57
2022-10-06T00:48:51.134Z,10.63
2022-10-06T00:51:17.882Z,11.17
2022-10-06T00:53:44.437Z,11.67
2022-10-06T00:56:11.912Z,11.13
2022-10-06T00:58:38.446Z,11.00
2022-10-06T01:01:05.074Z,12.40
2022-10-06T01:03:34.351Z,11.27
2022-10-06T01:06:01.192Z,11.77
2022-10-06T01:08:29.200Z,13.00
2022-10-06T01:10:55.903Z,12.07
2022-10-06T01:13:22.537Z,10.73
2022-10-06T01:16:00.591Z,12.97
2022-10-06T01:18:28.327Z,10.60
2022-10-06T01:21:02.258Z,11.00
2022-10-06T01:23:31.486Z,9.20
2022-10-06T01:25:58.694Z,12.73
2022-10-06T01:28:25.925Z,10.90
2022-10-06T01:30:53.882Z,12.43
2022-10-06T01:33:21.910Z,11.70
2022-10-06T01:35:51.952Z,13.50
2022-10-06T01:38:20.276Z,12.87
2022-10-06T01:40:46.843Z,12.00
2022-10-06T01:43:14.065Z,11.57
2022-10-06T01:45:40.747Z,11.20
2022-10-06T01:48:07.628Z,11.80
2022-10-06T01:50:34.509Z,12.70
2022-10-06T01:53:01.042Z,11.97
2022-10-06T01:55:27.878Z,11.67
2022-10-06T01:57:54.379Z,11.80
2022-10-06T02:00:20.864Z,12.00
2022-10-06T02:02:47.374Z,11.70
2022-10-06T02:05:14.207Z,10.63
2022-10-06T02:07:40.717Z,11.67
2022-10-06T02:10:07.685Z,11.00
2022-10-06T02:12:34.321Z,10.50
2022-10-06T02:15:00.962Z,10.17
2022-10-06T02:17:28.275Z,9.93
2022-10-06T02:19:54.995Z,9.40
2022-10-06T02:22:21.655Z,8.80
2022-10-06T02:24:48.136Z,9.40
2022-10-06T02:27:15.193Z,9.23
2022-10-06T02:29:41.702Z,8.27
2022-10-06T02:32:08.409Z,8.27
2022-10-06T02:34:34.963Z,9.80
2022-10-06T02:37:01.527Z,8.70
2022-10-06T02:39:27.981Z,9.82
2022-10-06T02:41:54.788Z,8.95
2022-10-06T02:44:21.455Z,9.10
2022-10-06T02:46:48.522Z,8.88
2022-10-06T02:49:15.109Z,10.27
2022-10-06T02:51:41.687Z,10.00
2022-10-06T02:54:08.158Z,9.70
2022-10-06T02:56:34.634Z,9.37
2022-10-06T02:59:01.091Z,8.48
2022-10-06T03:01:29.025Z,10.27
2022-10-06T03:03:55.978Z,9.38
2022-10-06T03:06:27.508Z,10.10
2022-10-06T03:09:01.708Z,9.90
2022-10-06T03:11:33.686Z,10.20
2022-10-06T03:14:00.415Z,9.50
2022-10-06T03:16:32.576Z,10.47
2022-10-06T03:19:00.543Z,8.68
2022-10-06T03:21:32.866Z,9.63
2022-10-06T03:23:59.884Z,9.02
2022-10-06T03:26:31.096Z,11.47
2022-10-06T03:28:58.075Z,9.52
2022-10-06T03:31:25.082Z,11.15
2022-10-06T03:33:52.763Z,9.93
2022-10-06T03:36:20.621Z,10.13
2022-10-06T03:38:47.684Z,12.07
2022-10-06T03:41:19.295Z,12.90
2022-10-06T03:43:47.849Z,12.20
2022-10-06T03:46:18.659Z,11.75
2022-10-06T03:48:46.211Z,10.50
2022-10-06T03:51:14.006Z,12.93
2022-10-06T03:53:43.979Z,10.85
2022-10-06T03:56:16.354Z,13.35
2022-10-06T03:58:49.203Z,12.30
2022-10-06T04:01:25.008Z,13.15
2022-10-06T04:03:55.000Z,11.98
2022-10-06T04:06:21.776Z,12.20
2022-10-06T04:08:49.560Z,11.07
2022-10-06T04:11:17.368Z,11.73
2022-10-06T04:13:44.776Z,12.20
2022-10-06T04:16:19.679Z,10.88
2022-10-06T04:18:49.597Z,10.47
2022-10-06T04:21:16.299Z,10.93
2022-10-06T04:23:43.066Z,11.07
2022-10-06T04:26:15.170Z,11.30
2022-10-06T04:28:43.259Z,11.27
2022-10-06T04:31:15.534Z,11.17
2022-10-06T04:33:43.807Z,11.38
2022-10-06T04:36:14.438Z,13.32
2022-10-06T04:38:40.983Z,10.87
2022-10-06T04:41:13.043Z,10.70
2022-10-06T04:43:40.791Z,11.23
2022-10-06T04:46:30.330Z,11.57
2022-10-06T04:48:55.819Z,10.60
2022-10-06T04:51:24.521Z,13.38
2022-10-06T04:53:51.060Z,11.43
2022-10-06T04:56:29.422Z,12.02
2022-10-06T04:58:56.972Z,12.33
2022-10-06T05:01:32.138Z,12.95
2022-10-06T05:04:00.176Z,13.02
2022-10-06T05:06:37.400Z,11.77
2022-10-06T05:09:08.913Z,11.45
2022-10-06T05:11:35.603Z,9.80
2022-10-06T05:14:02.193Z,9.27
2022-10-06T05:16:29.912Z,11.27
2022-10-06T05:18:56.993Z,11.27
2022-10-06T05:21:26.578Z,12.27
2022-10-06T05:23:53.418Z,10.48
2022-10-06T05:26:22.249Z,8.57
2022-10-06T05:28:49.063Z,11.57
2022-10-06T05:31:22.864Z,9.70
2022-10-06T05:33:49.671Z,10.43
2022-10-06T05:36:22.219Z,10.50
2022-10-06T05:38:49.160Z,9.13
2022-10-06T05:41:20.680Z,10.17
2022-10-06T05:43:47.894Z,9.80
2022-10-06T05:46:16.823Z,9.33
2022-10-06T05:48:53.669Z,9.07
2022-10-06T05:51:21.398Z,7.87
2022-10-06T05:53:48.071Z,8.03
2022-10-06T05:56:15.726Z,6.80
2022-10-06T05:58:45.077Z,8.73
2022-10-06T06:01:19.567Z,7.60
2022-10-06T06:03:49.650Z,7.63
2022-10-06T06:08:45.534Z,6.83
2022-10-06T06:11:12.664Z,11.23
2022-10-06T06:13:39.499Z,12.27
2022-10-06T06:16:08.077Z,8.53
2022-10-06T06:18:37.097Z,7.30
2022-10-06T06:21:06.616Z,8.10
2022-10-06T06:23:45.141Z,8.75
2022-10-06T06:26:23.081Z,7.90
2022-10-06T06:28:50.531Z,7.47
2022-10-06T06:31:24.975Z,7.37
2022-10-06T06:33:53.671Z,7.57
2022-10-06T06:36:25.513Z,10.00
2022-10-06T06:38:54.113Z,9.20
2022-10-06T06:41:21.449Z,9.07
2022-10-06T06:43:48.587Z,8.90
2022-10-06T06:46:16.977Z,6.60
2022-10-06T06:48:43.781Z,6.83
2022-10-06T06:51:10.979Z,7.00
2022-10-06T06:53:38.673Z,6.77
2022-10-06T06:56:06.010Z,6.30
2022-10-06T06:58:32.996Z,6.13
2022-10-06T07:01:12.830Z,6.37
2022-10-06T07:06:28.197Z,5.97
2022-10-06T07:08:56.083Z,6.67
2022-10-06T07:11:25.423Z,6.33
2022-10-06T07:13:55.887Z,6.05
2022-10-06T07:16:22.936Z,7.30
2022-10-06T07:18:49.415Z,7.30
2022-10-06T07:21:15.923Z,6.43
2022-10-06T07:23:42.632Z,5.87
2022-10-06T07:26:10.302Z,6.00
2022-10-06T07:28:37.934Z,5.70
2022-10-06T07:31:04.575Z,5.30
2022-10-06T07:33:31.088Z,6.70
2022-10-06T07:35:57.611Z,6.07
2022-10-06T07:38:24.279Z,5.87
2022-10-06T07:41:14.899Z,5.43
2022-10-06T07:43:42.062Z,5.77
2022-10-06T07:46:12.200Z,6.13
2022-10-06T07:48:38.778Z,5.57
2022-10-06T07:51:15.876Z,5.50
2022-10-06T07:53:42.853Z,5.70
2022-10-06T07:56:09.347Z,5.17
2022-10-06T07:58:35.826Z,5.33
2022-10-06T08:01:11.255Z,5.23
2022-10-06T08:03:39.004Z,5.63
2022-10-06T08:06:05.960Z,5.33
2022-10-06T08:08:33.793Z,4.67
2022-10-06T08:11:01.619Z,5.50
2022-10-06T08:13:28.563Z,5.40
2022-10-06T08:15:55.115Z,5.77
2022-10-06T08:18:44.289Z,5.37
2022-10-06T08:21:10.376Z,5.63
2022-10-06T08:23:37.230Z,5.37
2022-10-06T08:26:03.712Z,5.00
2022-10-06T08:28:30.203Z,5.33
2022-10-06T08:30:56.838Z,7.50
2022-10-06T08:33:23.355Z,6.83
2022-10-06T08:35:49.851Z,7.10
2022-10-06T08:38:16.285Z,6.87
2022-10-06T08:40:43.767Z,8.00
2022-10-06T08:43:16.324Z,7.27
2022-10-06T08:45:44.321Z,7.40
2022-10-06T08:48:13.734Z,6.50
2022-10-06T08:51:01.141Z,7.00
2022-10-06T08:53:41.455Z,6.40
2022-10-06T08:56:12.912Z,7.10
2022-10-06T08:58:55.375Z,6.13
2022-10-06T09:01:24.208Z,6.83
2022-10-06T09:04:04.041Z,6.83
2022-10-06T09:09:19.548Z,5.77
2022-10-06T09:12:06.020Z,6.20
2022-10-06T09:14:38.033Z,5.60
2022-10-06T09:17:09.676Z,6.17
2022-10-06T09:19:46.240Z,5.23
2022-10-06T09:22:19.291Z,5.33
2022-10-06T09:24:47.586Z,4.97
2022-10-06T09:27:19.756Z,4.93
2022-10-06T09:29:46.643Z,4.53
2022-10-06T09:32:13.382Z,4.97
2022-10-06T09:34:48.796Z,4.30
2022-10-06T09:37:15.590Z,4.63
2022-10-06T09:39:47.626Z,4.10
2022-10-06T09:42:26.805Z,4.70
2022-10-06T09:45:06.131Z,4.30
2022-10-06T09:47:44.718Z,3.60
2022-10-06T09:50:17.893Z,4.30
2022-10-06T09:52:59.413Z,4.33
2022-10-06T09:55:31.203Z,3.83
2022-10-06T09:57:57.913Z,3.87
2022-10-06T10:00:30.526Z,4.20
2022-10-06T10:03:01.769Z,3.90
2022-10-06T10:05:32.009Z,3.77
2022-10-06T10:08:20.883Z,3.80
2022-10-06T10:10:48.569Z,4.35
2022-10-06T10:13:25.051Z,3.70
2022-10-06T10:15:52.586Z,3.77
2022-10-06T10:18:19.507Z,3.80
2022-10-06T10:20:52.063Z,4.10
2022-10-06T10:23:26.025Z,3.47
2022-10-06T10:26:19.798Z,3.80
2022-10-06T10:28:58.714Z,3.60
2022-10-06T10:31:42.678Z,3.70
2022-10-06T10:34:47.774Z,3.80
2022-10-06T10:37:15.819Z,3.70
2022-10-06T10:39:57.208Z,3.70
2022-10-06T10:42:29.675Z,3.63
2022-10-06T10:45:01.045Z,3.70
2022-10-06T10:47:30.984Z,3.70
2022-10-06T10:50:08.206Z,4.00
2022-10-06T10:52:39.691Z,3.70
2022-10-06T10:55:28.783Z,4.10
2022-10-06T10:57:58.468Z,3.22
2022-10-06T11:02:53.359Z,3.50
2022-10-06T11:05:43.134Z,3.60
2022-10-06T11:08:24.940Z,3.67
2022-10-06T11:10:59.421Z,3.50
2022-10-06T11:13:32.086Z,3.90
2022-10-06T11:16:04.814Z,3.83
2022-10-06T11:18:58.647Z,3.93
2022-10-06T11:21:36.337Z,3.50
2022-10-06T11:24:37.489Z,3.30
2022-10-06T11:27:09.955Z,3.90
2022-10-06T11:29:57.109Z,3.87
2022-10-06T11:32:38.969Z,3.93
2022-10-06T11:35:25.267Z,3.83
2022-10-06T11:37:57.841Z,3.50
2022-10-06T11:40:51.814Z,4.50
2022-10-06T11:43:27.155Z,3.77
2022-10-06T11:46:32.078Z,3.63
2022-10-06T11:49:29.758Z,3.77
2022-10-06T11:51:59.695Z,3.90
2022-10-06T11:54:42.449Z,3.70
2022-10-06T11:57:30.333Z,3.83
2022-10-06T12:00:15.985Z,3.97
2022-10-06T12:02:44.192Z,3.30
2022-10-06T12:05:35.744Z,3.50
2022-10-06T12:08:11.495Z,3.37
2022-10-06T12:10:48.241Z,3.70
2022-10-06T12:19:31.970Z,3.57
2022-10-06T12:22:25.729Z,3.93
2022-10-06T12:25:01.618Z,3.77
2022-10-06T12:27:36.150Z,4.20
2022-10-06T12:30:22.084Z,4.00
2022-10-06T12:32:49.974Z,3.50
2022-10-06T12:35:22.820Z,3.87
2022-10-06T12:37:54.253Z,3.53
2022-10-06T12:40:39.668Z,3.93
2022-10-06T12:43:15.154Z,4.17
2022-10-06T12:45:52.619Z,4.30
2022-10-06T12:48:36.643Z,4.03
2022-10-06T12:51:29.300Z,3.57
2022-10-06T12:54:01.545Z,3.43
2022-10-06T12:56:34.326Z,3.77
2022-10-06T12:59:20.007Z,4.33
2022-10-06T13:01:48.806Z,4.00
2022-10-06T13:04:49.174Z,3.85
2022-10-06T13:07:20.251Z,4.07
2022-10-06T13:09:48.617Z,4.63
2022-10-06T13:12:28.114Z,3.97
2022-10-06T13:15:17.840Z,4.40
2022-10-06T13:17:57.516Z,2.30
2022-10-06T13:23:05.665Z,2.00
2022-10-06T13:25:41.160Z,1.93
2022-10-06T13:28:29.016Z,2.10
2022-10-06T13:30:56.786Z,1.80
2022-10-06T13:33:24.456Z,1.70
2022-10-06T13:35:52.952Z,1.87
2022-10-06T13:38:20.399Z,1.70
2022-10-06T13:41:04.944Z,1.90
2022-10-06T13:43:34.141Z,1.90
2022-10-06T13:46:10.205Z,1.83
2022-10-06T13:48:41.750Z,1.90
2022-10-06T13:51:15.561Z,1.60
2022-10-06T13:53:45.042Z,1.90
2022-10-06T13:56:36.162Z,1.98
2022-10-06T13:59:21.811Z,1.90
2022-10-06T14:01:48.590Z,1.50
2022-10-06T14:04:17.418Z,1.80
2022-10-06T14:06:52.837Z,1.67
2022-10-06T14:09:37.464Z,1.70
2022-10-06T14:12:07.276Z,1.50
2022-10-06T14:14:33.983Z,1.70
2022-10-06T14:17:00.523Z,1.60
2022-10-06T14:19:33.627Z,2.03
2022-10-06T14:22:00.828Z,1.67
2022-10-06T14:24:27.317Z,1.97
2022-10-06T14:26:55.183Z,1.87
2022-10-06T14:29:22.320Z,1.80
2022-10-06T14:31:49.384Z,1.63
2022-10-06T14:34:18.256Z,1.70
2022-10-06T14:36:49.056Z,1.90
2022-10-06T14:39:15.868Z,2.17
2022-10-06T14:41:42.636Z,1.97
2022-10-06T14:44:10.405Z,1.77
2022-10-06T14:46:38.347Z,1.80
2022-10-06T14:49:06.131Z,1.50
2022-10-06T14:51:36.570Z,2.13
2022-10-06T14:54:06.967Z,2.10
2022-10-06T14:56:35.272Z,1.70
2022-10-06T14:59:03.757Z,1.67
2022-10-06T15:01:31.585Z,1.90
2022-10-06T15:04:00.470Z,1.80
2022-10-06T15:06:27.565Z,1.88
2022-10-06T15:08:56.331Z,1.90
2022-10-06T15:11:24.632Z,1.80
2022-10-06T15:13:51.447Z,1.57
2022-10-06T15:16:18.224Z,1.70
2022-10-06T15:18:44.784Z,1.70
2022-10-06T15:21:11.440Z,1.90
2022-10-06T15:23:38.675Z,2.17
2022-10-06T15:26:05.637Z,1.80
2022-10-06T15:28:33.653Z,2.10
2022-10-06T15:31:00.460Z,1.80
2022-10-06T15:33:27.883Z,1.80
2022-10-06T15:36:15.103Z,1.90
2022-10-06T15:38:41.852Z,2.00
2022-10-06T15:41:08.334Z,1.80
2022-10-06T15:43:34.820Z,2.20
2022-10-06T15:46:02.892Z,2.00
2022-10-06T15:48:30.587Z,2.07
2022-10-06T15:50:57.089Z,2.10
2022-10-06T15:53:23.598Z,2.33
2022-10-06T15:55:50.043Z,2.17
2022-10-06T15:58:16.525Z,2.17
2022-10-06T16:00:42.998Z,2.37
2022-10-06T16:03:09.612Z,2.20
2022-10-06T16:05:36.113Z,2.57
2022-10-06T16:08:02.582Z,2.83
2022-10-06T16:10:29.034Z,2.77
2022-10-06T16:12:56.049Z,2.60
2022-10-06T16:15:22.508Z,2.80
2022-10-06T16:17:48.982Z,2.67
2022-10-06T16:20:15.961Z,2.73
2022-10-06T16:22:42.578Z,3.00
2022-10-06T16:25:09.234Z,2.60
2022-10-06T16:27:35.892Z,3.00
2022-10-06T16:30:02.370Z,3.00
2022-10-06T16:32:28.919Z,2.70
2022-10-06T16:34:55.519Z,2.60
2022-10-06T16:37:21.997Z,2.80
2022-10-06T16:39:48.590Z,2.80
2022-10-06T16:42:15.088Z,2.70
2022-10-06T16:44:41.599Z,2.80
2022-10-06T16:47:08.482Z,2.90
2022-10-06T16:49:35.108Z,2.60
2022-10-06T16:52:01.575Z,2.90
2022-10-06T16:54:28.161Z,2.73
2022-10-06T16:56:54.673Z,2.60
2022-10-06T16:59:23.246Z,3.27
2022-10-06T17:01:50.238Z,2.80
2022-10-06T17:04:18.816Z,3.27
2022-10-06T17:06:47.635Z,2.63
2022-10-06T17:09:18.816Z,3.00
2022-10-06T17:11:47.847Z,2.93
2022-10-06T17:14:18.525Z,2.95
2022-10-06T17:16:46.508Z,3.10
2022-10-06T17:19:14.989Z,2.70
2022-10-06T17:21:46.592Z,2.80
2022-10-06T17:24:14.527Z,3.17
2022-10-06T17:26:42.845Z,2.87
2022-10-06T17:29:15.320Z,3.37
2022-10-06T17:31:42.978Z,3.47
2022-10-06T17:34:11.885Z,3.30
2022-10-06T17:36:42.898Z,4.00
2022-10-06T17:39:12.019Z,3.30
2022-10-06T17:41:40.488Z,3.20
2022-10-06T17:44:10.305Z,3.30
2022-10-06T17:46:38.133Z,3.35
2022-10-06T17:49:07.254Z,3.40
2022-10-06T17:51:35.162Z,3.60
2022-10-06T17:54:04.628Z,3.40
2022-10-06T17:56:32.730Z,3.95
2022-10-06T17:59:00.047Z,3.63
2022-10-06T18:01:29.937Z,3.40
2022-10-06T18:06:24.622Z,3.77
2022-10-06T18:08:51.113Z,3.73
2022-10-06T18:11:19.336Z,3.93
2022-10-06T18:13:46.439Z,4.10
2022-10-06T18:16:18.133Z,4.20
2022-10-06T18:18:46.888Z,4.27
2022-10-06T18:21:14.162Z,4.30
2022-10-06T18:23:40.841Z,4.47
2022-10-06T18:26:07.328Z,4.10
2022-10-06T18:28:33.867Z,3.90
2022-10-06T18:31:00.689Z,3.63
2022-10-06T18:36:15.505Z,4.00
2022-10-06T18:38:44.195Z,3.97
2022-10-06T18:41:15.985Z,4.07
2022-10-06T18:43:43.158Z,4.67
2022-10-06T18:46:11.516Z,4.27
2022-10-06T18:48:39.791Z,4.57
2022-10-06T18:51:06.696Z,4.73
2022-10-06T18:53:33.187Z,3.93
2022-10-06T18:55:59.664Z,4.20
2022-10-06T18:58:26.144Z,4.43
2022-10-06T19:00:52.695Z,4.70
2022-10-06T19:03:19.235Z,4.63
2022-10-06T19:05:52.446Z,4.07
2022-10-06T19:08:18.920Z,4.53
2022-10-06T19:10:45.469Z,4.47
2022-10-06T19:13:14.806Z,4.15
2022-10-06T19:15:50.160Z,4.73
2022-10-06T19:18:16.695Z,4.47
2022-10-06T19:20:50.444Z,5.13
2022-10-06T19:23:16.994Z,4.50
2022-10-06T19:25:43.627Z,4.63
2022-10-06T19:28:10.122Z,4.27
2022-10-06T19:30:36.715Z,4.50
2022-10-06T19:33:03.202Z,4.70
2022-10-06T19:35:29.981Z,5.10
2022-10-06T19:37:56.494Z,4.73
2022-10-06T19:43:03.715Z,5.07
2022-10-06T19:45:30.345Z,4.83
2022-10-06T19:47:56.826Z,4.90
2022-10-06T19:50:23.286Z,4.97
2022-10-06T19:52:49.749Z,5.10
2022-10-06T19:55:16.226Z,4.43
2022-10-06T19:57:46.955Z,4.87
2022-10-06T20:00:14.075Z,5.10
2022-10-06T20:02:43.129Z,5.00
2022-10-06T20:05:12.191Z,4.63
2022-10-06T20:07:39.174Z,5.53
2022-10-06T20:10:06.107Z,5.50
2022-10-06T20:12:35.479Z,5.13
2022-10-06T20:15:02.011Z,5.32
2022-10-06T20:17:29.739Z,5.33
2022-10-06T20:19:57.778Z,5.20
2022-10-06T20:22:25.303Z,5.03
2022-10-06T20:24:51.961Z,5.70
2022-10-06T20:27:18.455Z,5.27
2022-10-06T20:29:44.943Z,5.47
2022-10-06T20:32:11.534Z,5.53
2022-10-06T20:34:37.997Z,5.30
2022-10-06T20:37:05.156Z,5.70
2022-10-06T20:39:33.011Z,5.73
2022-10-06T20:42:00.220Z,5.20
2022-10-06T20:44:26.868Z,6.37
2022-10-06T20:46:53.578Z,5.43
2022-10-06T20:49:20.364Z,5.50
2022-10-06T20:51:48.690Z,5.90
2022-10-06T20:54:16.298Z,5.87
2022-10-06T20:56:43.100Z,4.93
2022-10-06T20:59:13.897Z,5.63
2022-10-06T21:01:40.699Z,6.13
2022-10-06T21:04:07.691Z,6.00
2022-10-06T21:06:34.212Z,5.50
2022-10-06T21:09:00.714Z,5.47
2022-10-06T21:11:27.204Z,6.00
2022-10-06T21:13:53.643Z,5.63
2022-10-06T21:16:24.111Z,5.90
2022-10-06T21:18:50.973Z,6.27
2022-10-06T21:21:17.991Z,5.47
2022-10-06T21:23:46.578Z,5.87
2022-10-06T21:26:18.651Z,5.53
2022-10-06T21:28:45.526Z,6.27
2022-10-06T21:31:14.434Z,5.67
2022-10-06T21:33:42.602Z,6.20
2022-10-06T21:36:20.236Z,6.27
2022-10-06T21:38:54.374Z,6.20
2022-10-06T21:41:23.329Z,6.23
2022-10-06T21:44:00.461Z,6.18
2022-10-06T21:46:30.489Z,6.60
2022-10-06T21:51:24.209Z,5.97
2022-10-06T21:53:51.867Z,6.37
2022-10-06T21:56:18.915Z,6.67
2022-10-06T21:58:53.362Z,6.57
2022-10-06T22:01:28.307Z,6.60
2022-10-06T22:03:56.727Z,6.83
2022-10-06T22:06:23.665Z,6.97
2022-10-06T22:08:50.677Z,6.33
2022-10-06T22:11:19.692Z,6.23
2022-10-06T22:13:50.002Z,6.60
2022-10-06T22:16:19.008Z,6.73
2022-10-06T22:18:46.447Z,6.38
2022-10-06T22:21:26.657Z,6.67
2022-10-06T22:24:08.167Z,7.33
2022-10-06T22:26:36.844Z,6.70
2022-10-06T22:29:04.237Z,7.00
2022-10-06T22:31:30.852Z,6.63
2022-10-06T22:33:59.072Z,5.90
2022-10-06T22:36:26.604Z,6.10
2022-10-06T22:38:53.911Z,7.07
2022-10-06T22:41:20.942Z,6.23
2022-10-06T22:43:47.694Z,5.70
2022-10-06T22:46:14.697Z,7.53
2022-10-06T22:48:41.429Z,7.67
2022-10-06T22:51:07.896Z,7.40
2022-10-06T22:53:34.791Z,7.23
2022-10-06T22:56:01.845Z,7.13
2022-10-06T22:58:28.591Z,7.10
2022-10-06T23:00:55.176Z,7.60
2022-10-06T23:03:21.729Z,7.23
2022-10-06T23:05:59.251Z,7.77
2022-10-06T23:08:30.040Z,7.60
2022-10-06T23:11:21.309Z,7.63
2022-10-06T23:13:47.868Z,7.40
2022-10-06T23:16:16.885Z,6.93
2022-10-06T23:18:44.599Z,6.03
2022-10-06T23:21:13.696Z,7.33
2022-10-06T23:23:40.149Z,8.20
2022-10-06T23:26:09.261Z,6.73
2022-10-06T23:28:36.121Z,7.53
2022-10-06T23:31:04.927Z,8.40
2022-10-06T23:33:32.273Z,8.27
2022-10-06T23:36:00.219Z,8.17
2022-10-06T23:38:27.365Z,8.40
2022-10-06T23:40:54.244Z,8.40
2022-10-06T23:43:21.159Z,9.30
2022-10-06T23:45:47.963Z,9.67
2022-10-06T23:48:14.871Z,9.87
2022-10-06T23:50:41.555Z,8.80
2022-10-06T23:53:08.640Z,10.37
2022-10-06T23:55:35.116Z,8.20
2022-10-06T23:58:01.625Z,7.57
